Time;durP1;ratioP1;P1;durP2;ratioP2;P2;SDS_P1;SDS_P2;PMS_P1;PMS_P2;Temp;Humidity;BMP_temperature;BMP_pressure;BME280_temperature;BME280_humidity;BME280_pressure;Samples;Min_cycle;Max_cycle;Signal;HPM_P1;HPM_P2
2022/10/13 00:00:37;;;;;;;;;;;11.40;99.90;;;;;;5005026;28;20018;-92
2022/10/13 00:03:02;;;;;;;;;;;11.40;99.90;;;;;;5026385;28;19980;-92
2022/10/13 00:05:28;;;;;;;;;;;10.60;99.90;;;;;;5018324;28;19917;-92
2022/10/13 00:07:54;;;;;;;;;;;10.70;99.90;;;;;;5018810;28;19921;-94
2022/10/13 00:10:20;;;;;;;;;;;10.60;99.90;;;;;;5021661;28;19931;-93
2022/10/13 00:12:46;;;;;;;;;;;11.40;99.90;;;;;;5018756;28;19961;-92
2022/10/13 00:15:11;;;;;;;;;;;11.10;99.90;;;;;;5036396;28;19940;-92
2022/10/13 00:17:37;;;;;;;;;;;10.60;99.90;;;;;;5020515;28;19917;-92
2022/10/13 00:20:04;;;;;;;;;;;10.60;99.90;;;;;;5035883;28;20125;-92
2022/10/13 00:22:29;;;;;;;;;;;10.60;99.90;;;;;;5037528;28;19927;-92
2022/10/13 00:24:55;;;;;;;;;;;11.70;99.90;;;;;;5018681;28;19952;-93
2022/10/13 00:27:20;;;;;;;;;;;11.60;99.90;;;;;;5019490;28;19943;-92
2022/10/13 00:29:46;;;;;;;;;;;11.10;99.90;;;;;;5029974;28;19917;-92
2022/10/13 00:32:12;;;;;;;;;;;11.60;99.90;;;;;;5019330;28;19935;-93
2022/10/13 00:34:37;;;;;;;;;;;11.70;99.90;;;;;;5015464;28;19927;-93
2022/10/13 00:37:03;;;;;;;;;;;9.80;99.90;;;;;;5016151;28;19920;-91
2022/10/13 00:39:29;;;;;;;;;;;11.80;99.90;;;;;;5016925;28;19928;-92
2022/10/13 00:41:59;;;;;;;;;;;12.10;99.90;;;;;;5031584;28;19928;-92
2022/10/13 00:44:43;;;;;;;;;;;10.70;99.90;;;;;;5016984;28;19929;-92
2022/10/13 00:47:09;;;;;;;;;;;10.70;99.90;;;;;;5012498;28;19921;-93
2022/10/13 00:49:34;;;;;;;;;;;10.70;99.90;;;;;;4999869;28;19951;-92
2022/10/13 00:52:00;;;;;;;;;;;10.80;99.90;;;;;;5016531;28;19931;-92
2022/10/13 00:54:25;;;;;;;;;;;10.70;99.90;;;;;;5014775;28;19917;-92
2022/10/13 00:56:52;;;;;;;;;;;10.80;99.90;;;;;;5013039;28;19921;-92
2022/10/13 00:59:22;;;;;;;;;;;11.90;99.90;;;;;;5028418;28;19991;-93
2022/10/13 01:01:50;;;;;;;;;;;10.70;99.90;;;;;;5028658;28;19920;-91
2022/10/13 01:04:16;;;;;;;;;;;10.80;99.90;;;;;;5031648;28;19921;-92
2022/10/13 01:06:42;;;;;;;;;;;11.50;99.90;;;;;;5018184;28;19921;-93
2022/10/13 01:09:07;;;;;;;;;;;11.30;99.90;;;;;;5033782;28;19920;-93
2022/10/13 01:11:36;;;;;;;;;;;11.30;99.90;;;;;;5032349;28;19924;-91
2022/10/13 01:14:23;;;;;;;;;;;10.80;99.90;;;;;;5047310;28;19989;-92
2022/10/13 01:16:52;;;;;;;;;;;10.80;99.90;;;;;;5016203;28;19920;-93
2022/10/13 01:19:24;;;;;;;;;;;10.70;99.90;;;;;;5016751;28;20007;-93
2022/10/13 01:21:58;;;;;;;;;;;10.70;99.90;;;;;;5015746;28;19920;-93
2022/10/13 01:24:40;;;;;;;;;;;12.00;99.90;;;;;;5016771;28;19924;-92
2022/10/13 01:27:13;;;;;;;;;;;10.70;99.90;;;;;;5016853;28;20003;-92
2022/10/13 01:29:51;;;;;;;;;;;10.70;99.90;;;;;;5023839;28;19979;-93
2022/10/13 01:32:31;;;;;;;;;;;10.80;99.90;;;;;;5029364;28;19943;-93
2022/10/13 01:35:03;;;;;;;;;;;10.80;99.90;;;;;;5028462;28;19947;-92
2022/10/13 01:37:31;;;;;;;;;;;10.70;99.90;;;;;;5016854;28;19921;-93
2022/10/13 01:40:10;;;;;;;;;;;11.30;99.90;;;;;;5017719;28;19928;-93
2022/10/13 01:42:42;;;;;;;;;;;10.70;99.90;;;;;;5017445;28;19927;-92
2022/10/13 01:45:09;;;;;;;;;;;11.00;99.90;;;;;;5018694;28;19920;-93
2022/10/13 01:47:35;;;;;;;;;;;10.80;99.90;;;;;;5017750;28;19921;-92
2022/10/13 01:50:01;;;;;;;;;;;11.80;99.90;;;;;;5017313;28;20009;-92
2022/10/13 01:52:32;;;;;;;;;;;10.80;99.90;;;;;;5018268;28;19921;-92
2022/10/13 01:55:03;;;;;;;;;;;10.80;99.90;;;;;;5017112;28;19990;-91
2022/10/13 01:57:33;;;;;;;;;;;10.80;99.90;;;;;;5019729;28;19967;-92
2022/10/13 02:00:00;;;;;;;;;;;10.80;99.90;;;;;;5024171;28;19920;-92
2022/10/13 02:02:38;;;;;;;;;;;10.80;99.90;;;;;;5027712;28;19927;-91
2022/10/13 02:05:07;;;;;;;;;;;10.80;99.90;;;;;;5026180;28;19928;-90
2022/10/13 02:07:45;;;;;;;;;;;10.80;99.90;;;;;;5026432;28;19993;-92
2022/10/13 02:10:13;;;;;;;;;;;10.80;99.90;;;;;;5027593;28;20054;-92
2022/10/13 02:12:47;;;;;;;;;;;10.80;99.90;;;;;;5026178;28;19920;-91
2022/10/13 02:15:15;;;;;;;;;;;10.70;99.90;;;;;;5024544;28;20457;-91
2022/10/13 02:17:46;;;;;;;;;;;10.70;99.90;;;;;;5020835;28;19943;-92
2022/10/13 02:20:14;;;;;;;;;;;10.80;99.90;;;;;;5018732;28;20447;-92
2022/10/13 02:22:41;;;;;;;;;;;11.80;99.90;;;;;;5020052;28;19921;-91
2022/10/13 02:25:07;;;;;;;;;;;10.70;99.90;;;;;;5018045;28;20430;-92
2022/10/13 02:27:33;;;;;;;;;;;10.70;99.90;;;;;;5000124;28;19920;-93
2022/10/13 02:29:59;;;;;;;;;;;12.00;99.90;;;;;;4998723;28;19921;-93
2022/10/13 02:32:24;;;;;;;;;;;11.90;99.90;;;;;;4999769;28;19925;-92
2022/10/13 02:34:50;;;;;;;;;;;11.70;99.90;;;;;;4998508;28;20352;-92
2022/10/13 02:37:16;;;;;;;;;;;10.60;99.90;;;;;;5014937;28;19921;-92
2022/10/13 02:39:41;;;;;;;;;;;11.40;99.90;;;;;;4999134;28;19927;-92
2022/10/13 02:42:07;;;;;;;;;;;10.60;99.90;;;;;;4998693;28;19921;-92
2022/10/13 02:44:33;;;;;;;;;;;10.90;99.90;;;;;;4998947;28;20632;-92
2022/10/13 02:46:58;;;;;;;;;;;10.60;99.90;;;;;;4998286;28;19921;-93
2022/10/13 02:49:24;;;;;;;;;;;11.40;99.90;;;;;;5000839;28;20433;-93
2022/10/13 02:51:52;;;;;;;;;;;10.60;99.90;;;;;;4998628;28;20383;-92
2022/10/13 02:54:17;;;;;;;;;;;10.60;99.90;;;;;;5015711;28;19970;-92
2022/10/13 02:56:43;;;;;;;;;;;11.60;99.90;;;;;;5015229;28;19924;-92
2022/10/13 02:59:09;;;;;;;;;;;10.50;99.90;;;;;;5014033;28;19920;-93
2022/10/13 03:01:39;;;;;;;;;;;11.80;99.90;;;;;;5016101;28;19925;-92
2022/10/13 03:04:06;;;;;;;;;;;11.30;99.90;;;;;;4998435;28;20303;-93
2022/10/13 03:06:31;;;;;;;;;;;10.50;99.90;;;;;;5015373;28;20334;-91
2022/10/13 03:08:57;;;;;;;;;;;10.50;99.90;;;;;;4997063;28;19921;-93
2022/10/13 03:11:22;;;;;;;;;;;10.50;99.90;;;;;;5015620;28;19920;-91
2022/10/13 03:13:48;;;;;;;;;;;10.50;99.90;;;;;;4997973;28;19921;-92
2022/10/13 03:16:14;;;;;;;;;;;11.70;99.90;;;;;;4998727;28;20064;-92
2022/10/13 03:18:39;;;;;;;;;;;10.50;99.90;;;;;;5015603;28;19921;-91
2022/10/13 03:21:05;;;;;;;;;;;10.50;99.90;;;;;;4996526;28;20470;-92
2022/10/13 03:23:31;;;;;;;;;;;10.50;99.90;;;;;;4999075;28;19967;-91
2022/10/13 03:25:57;;;;;;;;;;;10.50;99.90;;;;;;4996761;28;20015;-92
2022/10/13 03:28:23;;;;;;;;;;;11.60;99.90;;;;;;5014334;28;19928;-91
2022/10/13 03:30:49;;;;;;;;;;;11.90;99.90;;;;;;5013227;28;19921;-95
2022/10/13 03:33:22;;;;;;;;;;;10.50;99.90;;;;;;5014967;28;19928;-94
2022/10/13 03:35:47;;;;;;;;;;;10.00;99.90;;;;;;5015154;28;20011;-96
2022/10/13 03:38:13;;;;;;;;;;;10.50;99.90;;;;;;4998342;28;20303;-95
2022/10/13 03:40:39;;;;;;;;;;;10.60;99.90;;;;;;4999750;28;19920;-93
2022/10/13 03:43:04;;;;;;;;;;;11.90;99.90;;;;;;4997522;28;19925;-92
2022/10/13 03:45:30;;;;;;;;;;;10.50;99.90;;;;;;4998894;28;19920;-93
2022/10/13 03:47:55;;;;;;;;;;;11.70;99.90;;;;;;4997439;28;19927;-93
2022/10/13 03:50:21;;;;;;;;;;;10.50;99.90;;;;;;5014182;28;20070;-93
2022/10/13 03:52:47;;;;;;;;;;;11.50;99.90;;;;;;4997573;28;19967;-91
2022/10/13 03:55:12;;;;;;;;;;;10.70;99.90;;;;;;4996900;28;19921;-91
2022/10/13 03:57:38;;;;;;;;;;;10.50;99.90;;;;;;5015059;28;19921;-92
2022/10/13 04:00:07;;;;;;;;;;;11.20;99.90;;;;;;5013040;28;19927;-91
2022/10/13 04:02:33;;;;;;;;;;;10.50;99.90;;;;;;5030034;28;19920;-93
2022/10/13 04:04:58;;;;;;;;;;;10.50;99.90;;;;;;5013634;28;19928;-92
2022/10/13 04:07:24;;;;;;;;;;;10.50;99.90;;;;;;5014681;28;19947;-92
2022/10/13 04:09:50;;;;;;;;;;;11.70;99.90;;;;;;4997608;28;19927;-91
2022/10/13 04:12:15;;;;;;;;;;;10.60;99.90;;;;;;4997894;28;20003;-94
2022/10/13 04:14:41;;;;;;;;;;;10.50;99.90;;;;;;5002725;28;20010;-95
2022/10/13 04:17:07;;;;;;;;;;;10.50;99.90;;;;;;5022151;28;20448;-95
2022/10/13 04:19:32;;;;;;;;;;;11.80;99.90;;;;;;5024052;28;19924;-95
2022/10/13 04:21:58;;;;;;;;;;;10.50;99.90;;;;;;5005558;28;19920;-90
2022/10/13 04:24:23;;;;;;;;;;;10.90;99.90;;;;;;5005099;28;19927;-93
2022/10/13 04:26:49;;;;;;;;;;;10.50;99.90;;;;;;5006800;28;19995;-88
2022/10/13 04:29:14;;;;;;;;;;;10.50;99.90;;;;;;5024151;28;20025;-88
2022/10/13 04:31:42;;;;;;;;;;;11.40;99.90;;;;;;5006671;28;20283;-95
2022/10/13 04:34:08;;;;;;;;;;;10.90;99.90;;;;;;5014457;28;19979;-93
2022/10/13 04:36:34;;;;;;;;;;;11.30;99.90;;;;;;5013871;28;19925;-86
2022/10/13 04:38:59;;;;;;;;;;;10.50;99.90;;;;;;5015242;28;20484;-90
2022/10/13 04:41:25;;;;;;;;;;;10.40;99.90;;;;;;5015245;28;20026;-88
2022/10/13 04:43:51;;;;;;;;;;;10.50;99.90;;;;;;5012826;28;19928;-88
2022/10/13 04:46:18;;;;;;;;;;;10.50;99.90;;;;;;5013563;28;19921;-93
2022/10/13 04:48:44;;;;;;;;;;;10.50;99.90;;;;;;5014623;28;20003;-92
2022/10/13 04:51:17;;;;;;;;;;;10.50;99.90;;;;;;5014360;28;19968;-88
2022/10/13 04:53:42;;;;;;;;;;;11.20;99.90;;;;;;5010912;28;19921;-89
2022/10/13 04:56:13;;;;;;;;;;;11.30;99.90;;;;;;5025969;28;19967;-87
2022/10/13 04:58:39;;;;;;;;;;;10.50;99.90;;;;;;5032227;28;19924;-88
2022/10/13 05:01:05;;;;;;;;;;;10.50;99.90;;;;;;5023223;28;19933;-90
2022/10/13 05:03:37;;;;;;;;;;;11.20;99.90;;;;;;5014553;28;20344;-89
2022/10/13 05:06:03;;;;;;;;;;;10.50;99.90;;;;;;5020831;28;19924;-93
2022/10/13 05:08:28;;;;;;;;;;;10.50;99.90;;;;;;5006733;28;19931;-91
2022/10/13 05:10:55;;;;;;;;;;;11.20;99.90;;;;;;5010130;28;19954;-94
2022/10/13 05:13:24;;;;;;;;;;;10.50;99.90;;;;;;5018291;28;19929;-88
2022/10/13 05:15:50;;;;;;;;;;;11.20;99.90;;;;;;5017147;28;19921;-89
2022/10/13 05:18:16;;;;;;;;;;;11.00;99.90;;;;;;5015379;28;19952;-90
2022/10/13 05:20:41;;;;;;;;;;;11.40;99.90;;;;;;4997663;28;19921;-88
2022/10/13 05:23:07;;;;;;;;;;;11.80;99.90;;;;;;4997401;28;19932;-91
2022/10/13 05:25:36;;;;;;;;;;;11.20;99.90;;;;;;4994782;28;19921;-88
2022/10/13 05:28:06;;;;;;;;;;;10.50;99.90;;;;;;5009552;28;19921;-89
2022/10/13 05:30:31;;;;;;;;;;;11.30;99.90;;;;;;5009986;28;19928;-88
2022/10/13 05:32:57;;;;;;;;;;;10.50;99.90;;;;;;5014424;28;20327;-88
2022/10/13 05:35:23;;;;;;;;;;;11.80;99.90;;;;;;5008086;28;20372;-93
2022/10/13 05:37:48;;;;;;;;;;;10.50;99.90;;;;;;4994744;28;19976;-91
2022/10/13 05:40:14;;;;;;;;;;;10.50;99.90;;;;;;4993257;28;20004;-93
2022/10/13 05:42:40;;;;;;;;;;;10.50;99.90;;;;;;5009180;28;20293;-92
2022/10/13 05:45:07;;;;;;;;;;;11.90;99.90;;;;;;5010122;28;20012;-89
2022/10/13 05:47:33;;;;;;;;;;;10.50;99.90;;;;;;5008384;28;19921;-92
2022/10/13 05:49:59;;;;;;;;;;;10.50;99.90;;;;;;4992940;28;20369;-92
2022/10/13 05:52:25;;;;;;;;;;;11.20;99.90;;;;;;5008378;28;19925;-89
2022/10/13 05:54:54;;;;;;;;;;;10.60;99.90;;;;;;4991781;28;19936;-88
2022/10/13 05:57:21;;;;;;;;;;;11.70;99.90;;;;;;5027731;28;19921;-88
2022/10/13 06:00:07;;;;;;;;;;;10.50;99.90;;;;;;5010184;28;20351;-88
2022/10/13 06:02:38;;;;;;;;;;;11.60;99.90;;;;;;5011617;28;19921;-87
2022/10/13 06:05:05;;;;;;;;;;;11.60;99.90;;;;;;5025450;28;19921;-87
2022/10/13 06:07:31;;;;;;;;;;;10.50;99.90;;;;;;5026699;28;19921;-88
2022/10/13 06:09:57;;;;;;;;;;;10.90;99.90;;;;;;5008747;28;20398;-88
2022/10/13 06:12:22;;;;;;;;;;;10.50;99.90;;;;;;5009100;28;19921;-87
2022/10/13 06:14:48;;;;;;;;;;;10.50;99.90;;;;;;4991590;28;19972;-88
2022/10/13 06:17:14;;;;;;;;;;;11.80;99.90;;;;;;5006608;28;19921;-88
2022/10/13 06:19:39;;;;;;;;;;;10.50;99.90;;;;;;5010888;28;19972;-88
2022/10/13 06:22:05;;;;;;;;;;;10.60;99.90;;;;;;4993929;28;20357;-88
2022/10/13 06:24:31;;;;;;;;;;;10.60;99.90;;;;;;5012446;28;19921;-88
2022/10/13 06:26:56;;;;;;;;;;;10.60;99.90;;;;;;4996132;28;19944;-88
2022/10/13 06:29:22;;;;;;;;;;;11.30;99.90;;;;;;5002827;28;19921;-89
2022/10/13 06:31:47;;;;;;;;;;;10.10;99.90;;;;;;5008363;28;19921;-89
2022/10/13 06:34:13;;;;;;;;;;;10.60;99.90;;;;;;5012136;28;19921;-89
2022/10/13 06:36:40;;;;;;;;;;;10.70;99.90;;;;;;4998956;28;20296;-89
2022/10/13 06:39:06;;;;;;;;;;;10.70;99.90;;;;;;5012788;28;20390;-86
2022/10/13 06:41:32;;;;;;;;;;;10.70;99.90;;;;;;5030465;28;19953;-91
2022/10/13 06:43:57;;;;;;;;;;;11.30;99.90;;;;;;5011545;28;20273;-89
2022/10/13 06:46:23;;;;;;;;;;;10.80;99.90;;;;;;5011386;28;20015;-90
2022/10/13 06:48:49;;;;;;;;;;;10.80;99.90;;;;;;4995676;28;20411;-90
2022/10/13 06:51:15;;;;;;;;;;;11.30;99.90;;;;;;4995123;28;19968;-91
2022/10/13 06:53:41;;;;;;;;;;;11.60;99.90;;;;;;5012761;28;20014;-91
2022/10/13 06:56:07;;;;;;;;;;;11.10;99.90;;;;;;4994394;28;19928;-88
2022/10/13 06:58:33;;;;;;;;;;;10.00;99.90;;;;;;5027447;28;19921;-87
2022/10/13 07:00:59;;;;;;;;;;;11.00;99.90;;;;;;5008964;28;20007;-87
2022/10/13 07:03:24;;;;;;;;;;;12.20;99.90;;;;;;4994114;28;20009;-88
2022/10/13 07:05:50;;;;;;;;;;;11.00;99.90;;;;;;5009990;28;19928;-87
2022/10/13 07:08:16;;;;;;;;;;;11.10;99.90;;;;;;5026037;28;19966;-86
2022/10/13 07:10:42;;;;;;;;;;;11.10;99.90;;;;;;5010621;28;19921;-88
2022/10/13 07:13:07;;;;;;;;;;;11.90;99.90;;;;;;5025493;28;19921;-88
2022/10/13 07:15:35;;;;;;;;;;;11.10;99.90;;;;;;5027265;28;19953;-87
2022/10/13 07:18:01;;;;;;;;;;;12.00;99.90;;;;;;5009229;28;20380;-87
2022/10/13 07:20:27;;;;;;;;;;;11.20;99.90;;;;;;5026719;28;19932;-87
2022/10/13 07:22:53;;;;;;;;;;;11.30;99.90;;;;;;5008694;28;20012;-87
2022/10/13 07:25:18;;;;;;;;;;;11.40;99.90;;;;;;5025950;28;19940;-87
2022/10/13 07:27:44;;;;;;;;;;;12.40;99.90;;;;;;5009729;28;20027;-87
2022/10/13 07:30:10;;;;;;;;;;;12.20;99.90;;;;;;4992461;28;19968;-87
2022/10/13 07:32:36;;;;;;;;;;;11.50;99.90;;;;;;5010276;28;19925;-87
2022/10/13 07:35:02;;;;;;;;;;;12.30;99.90;;;;;;5008284;28;19921;-86
2022/10/13 07:37:27;;;;;;;;;;;12.50;99.90;;;;;;5026131;28;20007;-87
2022/10/13 07:39:53;;;;;;;;;;;11.70;99.90;;;;;;4992118;28;20075;-87
2022/10/13 07:42:19;;;;;;;;;;;11.80;99.90;;;;;;5009483;28;19931;-86
2022/10/13 07:44:44;;;;;;;;;;;12.80;99.90;;;;;;5026177;28;19951;-88
2022/10/13 07:47:10;;;;;;;;;;;11.90;99.90;;;;;;5011118;28;19946;-87
2022/10/13 07:49:36;;;;;;;;;;;11.90;99.90;;;;;;5015038;28;19921;-87
2022/10/13 07:52:01;;;;;;;;;;;12.00;99.90;;;;;;5012149;28;19928;-87
2022/10/13 07:54:27;;;;;;;;;;;12.00;99.90;;;;;;5029060;28;19921;-87
2022/10/13 07:56:54;;;;;;;;;;;12.00;99.90;;;;;;5010879;28;19921;-86
2022/10/13 07:59:19;;;;;;;;;;;12.00;99.90;;;;;;5027398;28;20381;-86
2022/10/13 08:01:45;;;;;;;;;;;12.10;99.90;;;;;;5028422;28;19940;-86
2022/10/13 08:04:11;;;;;;;;;;;13.00;99.90;;;;;;5009531;28;19983;-87
2022/10/13 08:06:36;;;;;;;;;;;12.10;99.90;;;;;;5027316;28;19921;-85
2022/10/13 08:09:03;;;;;;;;;;;12.20;99.90;;;;;;5024290;28;19921;-87
2022/10/13 08:11:29;;;;;;;;;;;12.30;99.90;;;;;;5027482;28;19921;-86
2022/10/13 08:13:59;;;;;;;;;;;12.30;99.90;;;;;;5007933;28;19924;-86
2022/10/13 08:16:25;;;;;;;;;;;12.40;99.90;;;;;;5025851;28;19925;-87
2022/10/13 08:18:51;;;;;;;;;;;12.40;99.90;;;;;;5008337;28;19921;-86
2022/10/13 08:21:18;;;;;;;;;;;12.50;99.90;;;;;;5008798;28;19928;-88
2022/10/13 08:23:43;;;;;;;;;;;12.50;99.90;;;;;;5025936;28;19997;-87
2022/10/13 08:26:14;;;;;;;;;;;12.50;99.90;;;;;;5024109;28;19921;-86
2022/10/13 08:28:39;;;;;;;;;;;12.60;99.90;;;;;;5025310;28;19921;-86
2022/10/13 08:31:05;;;;;;;;;;;12.60;99.90;;;;;;5025506;28;19925;-86
2022/10/13 08:33:30;;;;;;;;;;;12.50;99.90;;;;;;5027007;28;19921;-86
2022/10/13 08:35:56;;;;;;;;;;;13.30;99.90;;;;;;5008635;28;20012;-86
2022/10/13 08:38:21;;;;;;;;;;;12.60;99.90;;;;;;5024737;28;19921;-86
2022/10/13 08:40:48;;;;;;;;;;;12.60;99.90;;;;;;5010164;28;19928;-86
2022/10/13 08:43:16;;;;;;;;;;;12.50;99.90;;;;;;5026004;28;20339;-86
2022/10/13 08:45:41;;;;;;;;;;;12.60;99.90;;;;;;5010613;28;19921;-86
2022/10/13 08:48:13;;;;;;;;;;;12.60;99.90;;;;;;5009277;28;19927;-86
2022/10/13 08:50:39;;;;;;;;;;;12.60;99.90;;;;;;5027094;28;19921;-86
2022/10/13 08:53:26;;;;;;;;;;;13.80;99.90;;;;;;5011105;28;20414;-86
2022/10/13 08:55:56;;;;;;;;;;;12.60;99.90;;;;;;5032715;28;19927;-85
2022/10/13 08:58:30;;;;;;;;;;;12.60;99.90;;;;;;5033516;28;19917;-86
2022/10/13 09:01:08;;;;;;;;;;;12.60;99.90;;;;;;5047470;28;19928;-86
2022/10/13 09:03:39;;;;;;;;;;;12.70;99.90;;;;;;5048574;28;19928;-87
2022/10/13 09:06:10;;;;;;;;;;;12.70;99.90;;;;;;5048968;28;19916;-85
2022/10/13 09:08:41;;;;;;;;;;;12.70;99.90;;;;;;5045514;28;19928;-86
2022/10/13 09:11:08;;;;;;;;;;;12.70;99.90;;;;;;5036620;28;20407;-87
2022/10/13 09:13:33;;;;;;;;;;;12.90;99.90;;;;;;5025440;28;20360;-88
2022/10/13 09:15:59;;;;;;;;;;;12.70;99.90;;;;;;5010297;28;20051;-88
2022/10/13 09:18:30;;;;;;;;;;;12.80;99.90;;;;;;5010197;28;20339;-88
2022/10/13 09:21:09;;;;;;;;;;;12.80;99.90;;;;;;5011360;28;19921;-88
2022/10/13 09:23:35;;;;;;;;;;;12.80;99.90;;;;;;5010019;28;19932;-88
2022/10/13 09:26:06;;;;;;;;;;;12.80;99.90;;;;;;5009097;28;20007;-88
2022/10/13 09:28:31;;;;;;;;;;;12.90;99.90;;;;;;5025745;28;19921;-87
2022/10/13 09:31:16;;;;;;;;;;;12.90;99.90;;;;;;5007040;28;20384;-88
2022/10/13 09:33:42;;;;;;;;;;;13.00;99.90;;;;;;5007660;28;19935;-88
2022/10/13 09:36:10;;;;;;;;;;;13.00;99.90;;;;;;5011155;28;20003;-88
2022/10/13 09:38:35;;;;;;;;;;;13.00;99.90;;;;;;5028192;28;19931;-89
2022/10/13 09:41:03;;;;;;;;;;;13.10;99.90;;;;;;5011704;28;20007;-88
2022/10/13 09:43:36;;;;;;;;;;;13.30;99.90;;;;;;5010915;28;19944;-89
2022/10/13 09:46:10;;;;;;;;;;;13.00;99.90;;;;;;5011534;28;19928;-89
2022/10/13 09:48:35;;;;;;;;;;;13.10;99.90;;;;;;5009679;28;19978;-89
2022/10/13 09:51:01;;;;;;;;;;;13.10;99.90;;;;;;5009649;28;19921;-87
2022/10/13 09:53:32;;;;;;;;;;;13.10;99.90;;;;;;4994439;28;19921;-86
2022/10/13 09:56:06;;;;;;;;;;;13.10;99.90;;;;;;5028935;28;19928;-89
2022/10/13 09:58:33;;;;;;;;;;;12.70;99.90;;;;;;5013597;28;20007;-90
2022/10/13 10:00:59;;;;;;;;;;;13.20;99.90;;;;;;5011433;28;20292;-90
2022/10/13 10:03:33;;;;;;;;;;;13.20;99.90;;;;;;5011752;28;19928;-89
2022/10/13 10:06:00;;;;;;;;;;;13.20;99.90;;;;;;5011496;28;20452;-90
2022/10/13 10:08:28;;;;;;;;;;;13.30;99.90;;;;;;5011423;28;19972;-90
2022/10/13 10:10:54;;;;;;;;;;;13.30;99.90;;;;;;5013252;28;19921;-89
2022/10/13 10:13:21;;;;;;;;;;;13.40;99.90;;;;;;4995162;28;19967;-89
2022/10/13 10:15:50;;;;;;;;;;;13.50;99.90;;;;;;5013231;28;19928;-90
2022/10/13 10:18:18;;;;;;;;;;;13.50;99.90;;;;;;5013186;28;19925;-91
2022/10/13 10:20:44;;;;;;;;;;;13.60;99.90;;;;;;5013241;28;19921;-94
2022/10/13 10:23:22;;;;;;;;;;;14.20;99.90;;;;;;5013870;28;19968;-92
2022/10/13 10:25:53;;;;;;;;;;;13.70;99.90;;;;;;5011891;28;20654;-92
2022/10/13 10:28:38;;;;;;;;;;;13.70;99.90;;;;;;5014581;28;19966;-93
2022/10/13 10:31:22;;;;;;;;;;;13.70;99.90;;;;;;5011836;28;19921;-93
2022/10/13 10:34:03;;;;;;;;;;;13.80;99.90;;;;;;5011708;28;19921;-93
2022/10/13 10:36:44;;;;;;;;;;;13.60;99.90;;;;;;5012482;28;19925;-93
2022/10/13 10:39:28;;;;;;;;;;;13.90;99.90;;;;;;5010701;28;19921;-93
2022/10/13 10:42:07;;;;;;;;;;;13.80;99.90;;;;;;5012018;28;19921;-92
2022/10/13 10:44:34;;;;;;;;;;;13.80;99.90;;;;;;5006461;28;19932;-89
2022/10/13 10:47:01;;;;;;;;;;;13.80;99.90;;;;;;5010270;28;19921;-89
2022/10/13 10:49:27;;;;;;;;;;;13.80;99.90;;;;;;5011988;28;19925;-90
2022/10/13 10:51:53;;;;;;;;;;;13.70;99.90;;;;;;5010297;28;19928;-89
2022/10/13 10:54:30;;;;;;;;;;;13.70;99.90;;;;;;5026725;28;19921;-89
2022/10/13 10:57:19;;;;;;;;;;;13.70;99.90;;;;;;5009776;28;19921;-90
2022/10/13 10:59:48;;;;;;;;;;;13.70;99.90;;;;;;5001943;28;19968;-89
2022/10/13 11:02:26;;;;;;;;;;;13.70;99.90;;;;;;5010975;28;20060;-89
2022/10/13 11:04:52;;;;;;;;;;;13.70;99.90;;;;;;5008247;28;19927;-89
2022/10/13 11:07:20;;;;;;;;;;;13.70;99.90;;;;;;5010890;28;20015;-89
2022/10/13 11:09:46;;;;;;;;;;;13.70;99.90;;;;;;5009910;28;20026;-89
2022/10/13 11:12:35;;;;;;;;;;;13.70;99.90;;;;;;5011171;28;19921;-88
2022/10/13 11:15:08;;;;;;;;;;;13.80;99.90;;;;;;4983499;28;20317;-89
2022/10/13 11:17:38;;;;;;;;;;;13.80;99.90;;;;;;5009544;28;19931;-89
2022/10/13 11:20:16;;;;;;;;;;;13.80;99.90;;;;;;5010929;28;19921;-89
2022/10/13 11:23:02;;;;;;;;;;;13.80;99.90;;;;;;5026721;28;19928;-89
2022/10/13 11:25:44;;;;;;;;;;;14.60;99.90;;;;;;5010799;28;19928;-88
2022/10/13 11:28:22;;;;;;;;;;;13.90;99.90;;;;;;5016257;28;19921;-89
2022/10/13 11:31:16;;;;;;;;;;;14.10;99.90;;;;;;5011089;28;19928;-88
2022/10/13 11:33:43;;;;;;;;;;;14.10;99.90;;;;;;5016468;28;19928;-89
2022/10/13 11:36:34;;;;;;;;;;;14.20;99.90;;;;;;5023357;28;19921;-89
2022/10/13 11:39:11;;;;;;;;;;;14.20;99.90;;;;;;5010803;28;20288;-89
2022/10/13 11:41:43;;;;;;;;;;;14.20;99.90;;;;;;5029644;28;19921;-89
2022/10/13 11:44:18;;;;;;;;;;;14.20;99.90;;;;;;5012368;28;19921;-90
2022/10/13 11:46:47;;;;;;;;;;;14.20;99.90;;;;;;5028242;28;19928;-91
2022/10/13 11:49:33;;;;;;;;;;;14.30;99.90;;;;;;5028080;28;20369;-90
2022/10/13 11:52:18;;;;;;;;;;;14.30;99.90;;;;;;5009421;28;20392;-90
2022/10/13 11:54:48;;;;;;;;;;;14.30;99.90;;;;;;5031405;28;19928;-91
2022/10/13 11:57:25;;;;;;;;;;;14.40;99.90;;;;;;5015958;28;19921;-90
2022/10/13 11:59:54;;;;;;;;;;;14.40;99.90;;;;;;5016298;28;19936;-90
2022/10/13 12:02:22;;;;;;;;;;;14.50;99.90;;;;;;5017861;28;19987;-90
2022/10/13 12:05:03;;;;;;;;;;;14.50;99.90;;;;;;5017123;28;20265;-90
2022/10/13 12:07:31;;;;;;;;;;;14.50;99.90;;;;;;5015407;28;20372;-89
2022/10/13 12:09:57;;;;;;;;;;;14.80;99.90;;;;;;5014076;28;20296;-90
2022/10/13 12:12:23;;;;;;;;;;;14.50;99.90;;;;;;5012238;28;19928;-89
2022/10/13 12:14:53;;;;;;;;;;;14.60;99.90;;;;;;5027247;28;19921;-90
2022/10/13 12:17:20;;;;;;;;;;;14.60;99.90;;;;;;5010114;28;20288;-90
2022/10/13 12:19:46;;;;;;;;;;;14.70;99.90;;;;;;5011656;28;19971;-89
2022/10/13 12:22:12;;;;;;;;;;;14.80;99.90;;;;;;4993838;28;19921;-90
2022/10/13 12:24:37;;;;;;;;;;;14.80;99.90;;;;;;4993436;28;20312;-90
2022/10/13 12:27:10;;;;;;;;;;;15.70;99.90;;;;;;4992511;28;19952;-90
2022/10/13 12:29:38;;;;;;;;;;;14.90;99.90;;;;;;5025289;28;19969;-89
2022/10/13 12:32:16;;;;;;;;;;;14.90;99.90;;;;;;5009880;28;19955;-90
2022/10/13 12:34:42;;;;;;;;;;;14.90;99.90;;;;;;5009112;28;19924;-89
2022/10/13 12:37:14;;;;;;;;;;;14.80;99.90;;;;;;4993476;28;19921;-90
2022/10/13 12:39:40;;;;;;;;;;;14.90;99.90;;;;;;5008086;28;20388;-89
2022/10/13 12:42:06;;;;;;;;;;;14.80;99.90;;;;;;4993086;28;20085;-90
2022/10/13 12:44:32;;;;;;;;;;;14.90;99.90;;;;;;5009027;28;19921;-90
2022/10/13 12:46:59;;;;;;;;;;;14.90;99.90;;;;;;4992483;28;20390;-90
2022/10/13 12:49:24;;;;;;;;;;;14.90;99.90;;;;;;5008925;28;20410;-89
2022/10/13 12:51:56;;;;;;;;;;;14.90;99.90;;;;;;5007416;28;19921;-90
2022/10/13 12:54:27;;;;;;;;;;;14.90;99.90;;;;;;5009141;28;19921;-89
2022/10/13 12:56:58;;;;;;;;;;;14.90;99.90;;;;;;5007841;28;19924;-90
2022/10/13 12:59:26;;;;;;;;;;;14.90;99.90;;;;;;5008860;28;20364;-89
2022/10/13 13:01:59;;;;;;;;;;;14.90;99.90;;;;;;5008663;28;20351;-89
2022/10/13 13:04:40;;;;;;;;;;;14.30;99.90;;;;;;5023895;28;19986;-89
2022/10/13 13:07:20;;;;;;;;;;;14.80;99.90;;;;;;5026006;28;19925;-88
2022/10/13 13:09:58;;;;;;;;;;;14.90;99.90;;;;;;5007374;28;19921;-89
2022/10/13 13:12:25;;;;;;;;;;;14.80;99.90;;;;;;5007986;28;20364;-89
2022/10/13 13:14:53;;;;;;;;;;;15.40;99.90;;;;;;5008409;28;19921;-89
2022/10/13 13:17:19;;;;;;;;;;;14.90;99.90;;;;;;5024282;28;20098;-89
2022/10/13 13:19:46;;;;;;;;;;;14.90;99.90;;;;;;5009887;28;20444;-89
2022/10/13 13:22:11;;;;;;;;;;;15.00;99.90;;;;;;5024039;28;19999;-90
2022/10/13 13:24:37;;;;;;;;;;;15.00;99.90;;;;;;5025147;28;19921;-90
2022/10/13 13:27:26;;;;;;;;;;;15.00;99.90;;;;;;5009042;28;19929;-90
2022/10/13 13:29:55;;;;;;;;;;;15.00;99.90;;;;;;5009822;28;19944;-89
2022/10/13 13:32:22;;;;;;;;;;;15.00;99.90;;;;;;5015805;28;19921;-88
2022/10/13 13:34:48;;;;;;;;;;;15.00;99.90;;;;;;5022905;28;19921;-90
2022/10/13 13:37:17;;;;;;;;;;;15.00;99.90;;;;;;5024693;28;19931;-90
2022/10/13 13:39:42;;;;;;;;;;;15.00;99.90;;;;;;5021685;28;19928;-89
2022/10/13 13:42:11;;;;;;;;;;;15.20;99.90;;;;;;5007100;28;19960;-90
2022/10/13 13:44:37;;;;;;;;;;;15.00;99.90;;;;;;5022488;28;20354;-89
2022/10/13 13:47:02;;;;;;;;;;;15.10;99.90;;;;;;5000977;28;19946;-90
2022/10/13 13:49:28;;;;;;;;;;;15.00;99.90;;;;;;4999684;28;19920;-88
2022/10/13 13:51:53;;;;;;;;;;;15.80;99.90;;;;;;5003716;28;19931;-90
2022/10/13 13:54:19;;;;;;;;;;;15.80;99.90;;;;;;5023427;28;19972;-90
2022/10/13 13:56:45;;;;;;;;;;;15.60;99.90;;;;;;4995973;28;19925;-91
2022/10/13 13:59:11;;;;;;;;;;;15.00;99.90;;;;;;5021090;28;19928;-89
2022/10/13 14:01:36;;;;;;;;;;;15.10;99.90;;;;;;5020805;28;19943;-89
2022/10/13 14:04:02;;;;;;;;;;;15.00;99.90;;;;;;4999536;28;19960;-91
2022/10/13 14:06:27;;;;;;;;;;;15.00;99.90;;;;;;5002096;28;19921;-91
2022/10/13 14:08:53;;;;;;;;;;;15.00;99.90;;;;;;4999915;28;19921;-88
2022/10/13 14:11:19;;;;;;;;;;;15.00;99.90;;;;;;5016024;28;19921;-90
2022/10/13 14:13:50;;;;;;;;;;;15.00;99.90;;;;;;5013648;28;19921;-90
2022/10/13 14:16:19;;;;;;;;;;;15.00;99.90;;;;;;4999387;28;19921;-90
2022/10/13 14:18:44;;;;;;;;;;;14.90;99.90;;;;;;5035346;28;19921;-89
2022/10/13 14:21:10;;;;;;;;;;;15.30;99.90;;;;;;5019770;28;19927;-89
2022/10/13 14:23:36;;;;;;;;;;;14.90;99.90;;;;;;5040428;28;19917;-91